KWRB/WRB METAR and TAF weather

Enter ICAO airport designator
Station Type Date Time Source
KWRB METAR 2019/04/22 23:56 UTC NOAA

KWRB 222356Z 00000KT 10SM CLR 22/11 A3010 RMK AO2A SLP195 T02180112 10278 20218 58003


Station Type Date Time Source
KWRB Decoded METAR 2019/04/22 23:56 UTC NOAA

Warner Robins Air Force Base, GA, United States (KWRB) 32-38N 083-36W
Apr 22, 2019 - 07:56 PM EDT / 2019.04.22 2356 UTC
Wind: Calm:0
Visibility: 10 mile(s):0
Sky conditions: clear
Temperature: 71.2 F (21.8 C)
Dew Point: 52.2 F (11.2 C)
Relative Humidity: 50%
Pressure (altimeter): 30.1 in. Hg (1019 hPa)
Pressure tendency: 0.01 inches (0.3 hPa) lower than three hours ago
ob: KWRB 222356Z 00000KT 10SM CLR 22/11 A3010 RMK AO2A SLP195 T02180112 10278 20218 58003
cycle: 0

Station Type Date Time Source
KWRB TAF 2019/04/22 21:08 UTC NOAA

TAF KWRB 222100Z 2221/2403 VRB06KT 9999 SKC QNH3005INS TX27/2221Z TN12/2311Z

Example: see airport list